sensor_id;sensor_type;location;lat;lon;timestamp;P1;durP1;ratioP1;P2;durP2;ratioP2
24407;SDS011;12542;50.924;4.516;2022-07-29T00:01:21;10.23;;;1.25;;
24407;SDS011;12542;50.924;4.516;2022-07-29T00:03:47;4.72;;;1.20;;
24407;SDS011;12542;50.924;4.516;2022-07-29T00:06:13;5.63;;;1.30;;
24407;SDS011;12542;50.924;4.516;2022-07-29T00:08:39;4.88;;;1.27;;
24407;SDS011;12542;50.924;4.516;2022-07-29T00:11:07;3.20;;;1.10;;
24407;SDS011;12542;50.924;4.516;2022-07-29T00:13:33;6.13;;;1.35;;
24407;SDS011;12542;50.924;4.516;2022-07-29T00:15:59;7.10;;;1.50;;
24407;SDS011;12542;50.924;4.516;2022-07-29T00:18:25;3.85;;;1.25;;
24407;SDS011;12542;50.924;4.516;2022-07-29T00:20:50;6.38;;;1.40;;
24407;SDS011;12542;50.924;4.516;2022-07-29T00:23:16;6.43;;;1.95;;
24407;SDS011;12542;50.924;4.516;2022-07-29T00:25:41;3.42;;;1.10;;
24407;SDS011;12542;50.924;4.516;2022-07-29T00:28:07;2.83;;;0.85;;
24407;SDS011;12542;50.924;4.516;2022-07-29T00:30:33;4.10;;;1.42;;
24407;SDS011;12542;50.924;4.516;2022-07-29T00:32:59;6.13;;;1.38;;
24407;SDS011;12542;50.924;4.516;2022-07-29T00:35:30;7.03;;;1.80;;
24407;SDS011;12542;50.924;4.516;2022-07-29T00:38:15;3.13;;;1.10;;
24407;SDS011;12542;50.924;4.516;2022-07-29T00:40:44;4.95;;;1.23;;
24407;SDS011;12542;50.924;4.516;2022-07-29T00:43:13;5.57;;;1.30;;
24407;SDS011;12542;50.924;4.516;2022-07-29T00:45:39;6.65;;;1.25;;
24407;SDS011;12542;50.924;4.516;2022-07-29T00:48:05;3.40;;;1.10;;
24407;SDS011;12542;50.924;4.516;2022-07-29T00:50:33;4.28;;;1.23;;
24407;SDS011;12542;50.924;4.516;2022-07-29T00:53:03;4.90;;;1.55;;
24407;SDS011;12542;50.924;4.516;2022-07-29T00:55:31;2.42;;;1.10;;
24407;SDS011;12542;50.924;4.516;2022-07-29T00:57:58;4.03;;;1.63;;
24407;SDS011;12542;50.924;4.516;2022-07-29T01:00:26;4.72;;;1.42;;
24407;SDS011;12542;50.924;4.516;2022-07-29T01:02:55;5.43;;;1.15;;
24407;SDS011;12542;50.924;4.516;2022-07-29T01:05:25;4.40;;;1.42;;
24407;SDS011;12542;50.924;4.516;2022-07-29T01:07:53;3.58;;;1.38;;
24407;SDS011;12542;50.924;4.516;2022-07-29T01:10:20;5.78;;;1.45;;
24407;SDS011;12542;50.924;4.516;2022-07-29T01:12:48;5.03;;;1.40;;
24407;SDS011;12542;50.924;4.516;2022-07-29T01:15:16;7.45;;;1.50;;
24407;SDS011;12542;50.924;4.516;2022-07-29T01:17:51;6.78;;;1.33;;
24407;SDS011;12542;50.924;4.516;2022-07-29T01:29:05;3.58;;;1.35;;
24407;SDS011;12542;50.924;4.516;2022-07-29T01:31:35;5.43;;;1.52;;
24407;SDS011;12542;50.924;4.516;2022-07-29T01:34:38;3.58;;;1.40;;
24407;SDS011;12542;50.924;4.516;2022-07-29T01:37:20;8.27;;;1.27;;
24407;SDS011;12542;50.924;4.516;2022-07-29T01:40:11;4.15;;;1.10;;
24407;SDS011;12542;50.924;4.516;2022-07-29T01:42:48;7.63;;;1.25;;
24407;SDS011;12542;50.924;4.516;2022-07-29T01:50:47;5.20;;;0.98;;
24407;SDS011;12542;50.924;4.516;2022-07-29T01:56:03;6.22;;;1.45;;
24407;SDS011;12542;50.924;4.516;2022-07-29T01:58:29;6.28;;;1.50;;
24407;SDS011;12542;50.924;4.516;2022-07-29T02:00:57;4.25;;;1.15;;
24407;SDS011;12542;50.924;4.516;2022-07-29T02:03:24;5.82;;;1.20;;
24407;SDS011;12542;50.924;4.516;2022-07-29T02:05:52;4.45;;;1.23;;
24407;SDS011;12542;50.924;4.516;2022-07-29T02:08:21;5.85;;;1.58;;
24407;SDS011;12542;50.924;4.516;2022-07-29T02:10:47;6.03;;;1.27;;
24407;SDS011;12542;50.924;4.516;2022-07-29T02:13:15;3.65;;;1.40;;
24407;SDS011;12542;50.924;4.516;2022-07-29T02:15:43;7.72;;;1.50;;
24407;SDS011;12542;50.924;4.516;2022-07-29T02:18:11;2.33;;;1.08;;
24407;SDS011;12542;50.924;4.516;2022-07-29T02:20:42;4.90;;;1.20;;
24407;SDS011;12542;50.924;4.516;2022-07-29T02:23:11;2.38;;;1.10;;
24407;SDS011;12542;50.924;4.516;2022-07-29T02:25:41;4.45;;;1.77;;
24407;SDS011;12542;50.924;4.516;2022-07-29T02:28:07;3.35;;;1.27;;
24407;SDS011;12542;50.924;4.516;2022-07-29T02:30:35;3.42;;;1.05;;
24407;SDS011;12542;50.924;4.516;2022-07-29T02:33:09;4.43;;;1.10;;
24407;SDS011;12542;50.924;4.516;2022-07-29T02:35:37;2.80;;;1.08;;
24407;SDS011;12542;50.924;4.516;2022-07-29T02:38:07;6.35;;;2.03;;
24407;SDS011;12542;50.924;4.516;2022-07-29T02:40:56;5.18;;;1.00;;
24407;SDS011;12542;50.924;4.516;2022-07-29T02:43:25;3.72;;;1.30;;
24407;SDS011;12542;50.924;4.516;2022-07-29T02:45:53;5.70;;;1.27;;
24407;SDS011;12542;50.924;4.516;2022-07-29T02:48:22;3.97;;;1.48;;
24407;SDS011;12542;50.924;4.516;2022-07-29T02:51:01;4.72;;;1.30;;
24407;SDS011;12542;50.924;4.516;2022-07-29T02:53:36;2.42;;;1.30;;
24407;SDS011;12542;50.924;4.516;2022-07-29T02:56:07;6.97;;;1.38;;
24407;SDS011;12542;50.924;4.516;2022-07-29T02:58:45;5.28;;;1.52;;
24407;SDS011;12542;50.924;4.516;2022-07-29T03:01:15;3.83;;;1.40;;
24407;SDS011;12542;50.924;4.516;2022-07-29T03:03:48;9.20;;;1.60;;
24407;SDS011;12542;50.924;4.516;2022-07-29T03:06:16;5.20;;;1.23;;
24407;SDS011;12542;50.924;4.516;2022-07-29T03:08:43;5.93;;;1.58;;
24407;SDS011;12542;50.924;4.516;2022-07-29T03:11:13;4.30;;;1.90;;
24407;SDS011;12542;50.924;4.516;2022-07-29T03:13:43;3.08;;;1.40;;
24407;SDS011;12542;50.924;4.516;2022-07-29T03:16:09;4.03;;;1.40;;
24407;SDS011;12542;50.924;4.516;2022-07-29T03:18:36;4.95;;;1.65;;
24407;SDS011;12542;50.924;4.516;2022-07-29T03:21:04;5.18;;;2.05;;
24407;SDS011;12542;50.924;4.516;2022-07-29T03:23:33;3.53;;;1.52;;
24407;SDS011;12542;50.924;4.516;2022-07-29T03:26:01;3.05;;;1.20;;
24407;SDS011;12542;50.924;4.516;2022-07-29T03:28:29;3.45;;;1.58;;
24407;SDS011;12542;50.924;4.516;2022-07-29T03:30:54;9.68;;;1.83;;
24407;SDS011;12542;50.924;4.516;2022-07-29T03:33:22;4.03;;;1.75;;
24407;SDS011;12542;50.924;4.516;2022-07-29T03:35:48;5.50;;;1.50;;
24407;SDS011;12542;50.924;4.516;2022-07-29T03:38:14;4.40;;;1.35;;
24407;SDS011;12542;50.924;4.516;2022-07-29T03:40:46;4.97;;;1.58;;
24407;SDS011;12542;50.924;4.516;2022-07-29T03:43:21;7.22;;;1.85;;
24407;SDS011;12542;50.924;4.516;2022-07-29T03:45:50;4.43;;;1.55;;
24407;SDS011;12542;50.924;4.516;2022-07-29T03:48:19;4.00;;;1.40;;
24407;SDS011;12542;50.924;4.516;2022-07-29T03:50:46;3.40;;;1.42;;
24407;SDS011;12542;50.924;4.516;2022-07-29T03:53:13;3.65;;;1.40;;
24407;SDS011;12542;50.924;4.516;2022-07-29T03:55:45;5.22;;;1.80;;
24407;SDS011;12542;50.924;4.516;2022-07-29T03:58:13;5.30;;;1.60;;
24407;SDS011;12542;50.924;4.516;2022-07-29T04:00:41;3.42;;;1.50;;
24407;SDS011;12542;50.924;4.516;2022-07-29T04:03:08;3.78;;;1.92;;
24407;SDS011;12542;50.924;4.516;2022-07-29T04:05:37;5.93;;;1.65;;
24407;SDS011;12542;50.924;4.516;2022-07-29T04:08:02;8.40;;;1.80;;
24407;SDS011;12542;50.924;4.516;2022-07-29T04:10:28;5.90;;;1.80;;
24407;SDS011;12542;50.924;4.516;2022-07-29T04:12:54;6.43;;;1.60;;
24407;SDS011;12542;50.924;4.516;2022-07-29T04:15:24;6.10;;;2.00;;
24407;SDS011;12542;50.924;4.516;2022-07-29T04:17:50;4.47;;;1.88;;
24407;SDS011;12542;50.924;4.516;2022-07-29T04:20:16;4.72;;;1.60;;
24407;SDS011;12542;50.924;4.516;2022-07-29T04:22:44;3.78;;;1.40;;
24407;SDS011;12542;50.924;4.516;2022-07-29T04:25:10;3.95;;;1.77;;
24407;SDS011;12542;50.924;4.516;2022-07-29T04:27:36;5.57;;;2.03;;
24407;SDS011;12542;50.924;4.516;2022-07-29T04:30:22;6.22;;;2.15;;
24407;SDS011;12542;50.924;4.516;2022-07-29T04:32:48;5.75;;;1.70;;
24407;SDS011;12542;50.924;4.516;2022-07-29T04:35:14;4.15;;;1.77;;
24407;SDS011;12542;50.924;4.516;2022-07-29T04:37:39;5.20;;;1.70;;
24407;SDS011;12542;50.924;4.516;2022-07-29T04:40:05;4.68;;;1.92;;
24407;SDS011;12542;50.924;4.516;2022-07-29T04:42:31;4.40;;;2.00;;
24407;SDS011;12542;50.924;4.516;2022-07-29T04:44:57;6.22;;;2.45;;
24407;SDS011;12542;50.924;4.516;2022-07-29T04:47:24;5.68;;;2.20;;
24407;SDS011;12542;50.924;4.516;2022-07-29T04:49:50;4.10;;;1.95;;
24407;SDS011;12542;50.924;4.516;2022-07-29T04:52:15;2.40;;;1.70;;
24407;SDS011;12542;50.924;4.516;2022-07-29T04:54:41;3.17;;;1.73;;
24407;SDS011;12542;50.924;4.516;2022-07-29T04:57:06;3.17;;;1.67;;
24407;SDS011;12542;50.924;4.516;2022-07-29T04:59:32;4.32;;;1.90;;
24407;SDS011;12542;50.924;4.516;2022-07-29T05:01:58;7.05;;;2.17;;
24407;SDS011;12542;50.924;4.516;2022-07-29T05:04:24;5.90;;;1.98;;
24407;SDS011;12542;50.924;4.516;2022-07-29T05:06:49;6.30;;;1.90;;
24407;SDS011;12542;50.924;4.516;2022-07-29T05:09:15;8.82;;;1.90;;
24407;SDS011;12542;50.924;4.516;2022-07-29T05:11:40;6.43;;;2.10;;
24407;SDS011;12542;50.924;4.516;2022-07-29T05:14:07;3.90;;;1.98;;
24407;SDS011;12542;50.924;4.516;2022-07-29T05:16:35;9.10;;;1.88;;
24407;SDS011;12542;50.924;4.516;2022-07-29T05:19:01;2.97;;;1.55;;
24407;SDS011;12542;50.924;4.516;2022-07-29T05:21:28;3.88;;;1.60;;
24407;SDS011;12542;50.924;4.516;2022-07-29T05:23:54;9.57;;;2.00;;
24407;SDS011;12542;50.924;4.516;2022-07-29T05:26:20;4.50;;;2.00;;
24407;SDS011;12542;50.924;4.516;2022-07-29T05:28:45;2.58;;;1.58;;
24407;SDS011;12542;50.924;4.516;2022-07-29T05:31:11;2.70;;;1.60;;
24407;SDS011;12542;50.924;4.516;2022-07-29T05:33:39;8.60;;;1.92;;
24407;SDS011;12542;50.924;4.516;2022-07-29T05:36:06;4.75;;;1.55;;
24407;SDS011;12542;50.924;4.516;2022-07-29T05:38:32;4.38;;;2.15;;
24407;SDS011;12542;50.924;4.516;2022-07-29T05:40:58;4.28;;;1.73;;
24407;SDS011;12542;50.924;4.516;2022-07-29T05:43:24;6.28;;;1.88;;
24407;SDS011;12542;50.924;4.516;2022-07-29T05:45:53;4.03;;;1.88;;
24407;SDS011;12542;50.924;4.516;2022-07-29T05:48:18;5.45;;;2.00;;
24407;SDS011;12542;50.924;4.516;2022-07-29T05:50:44;5.28;;;2.15;;
24407;SDS011;12542;50.924;4.516;2022-07-29T05:53:09;6.10;;;1.80;;
24407;SDS011;12542;50.924;4.516;2022-07-29T05:55:35;3.85;;;1.88;;
24407;SDS011;12542;50.924;4.516;2022-07-29T05:58:01;4.18;;;1.70;;
24407;SDS011;12542;50.924;4.516;2022-07-29T06:00:26;4.97;;;1.70;;
24407;SDS011;12542;50.924;4.516;2022-07-29T06:02:52;3.42;;;1.75;;
24407;SDS011;12542;50.924;4.516;2022-07-29T06:05:21;8.23;;;2.30;;
24407;SDS011;12542;50.924;4.516;2022-07-29T06:07:47;4.22;;;2.10;;
24407;SDS011;12542;50.924;4.516;2022-07-29T06:10:13;4.90;;;2.10;;
24407;SDS011;12542;50.924;4.516;2022-07-29T06:12:40;3.75;;;1.83;;
24407;SDS011;12542;50.924;4.516;2022-07-29T06:15:05;6.13;;;2.45;;
24407;SDS011;12542;50.924;4.516;2022-07-29T06:17:31;4.88;;;2.25;;
24407;SDS011;12542;50.924;4.516;2022-07-29T06:19:57;9.02;;;2.50;;
24407;SDS011;12542;50.924;4.516;2022-07-29T06:22:23;3.42;;;1.80;;
24407;SDS011;12542;50.924;4.516;2022-07-29T06:24:51;5.72;;;1.90;;
24407;SDS011;12542;50.924;4.516;2022-07-29T06:27:19;4.72;;;2.25;;
24407;SDS011;12542;50.924;4.516;2022-07-29T06:29:45;5.35;;;1.90;;
24407;SDS011;12542;50.924;4.516;2022-07-29T06:32:10;6.00;;;2.38;;
24407;SDS011;12542;50.924;4.516;2022-07-29T06:34:36;5.50;;;1.77;;
24407;SDS011;12542;50.924;4.516;2022-07-29T06:37:06;4.97;;;2.08;;
24407;SDS011;12542;50.924;4.516;2022-07-29T06:39:34;4.38;;;2.03;;
24407;SDS011;12542;50.924;4.516;2022-07-29T06:42:01;7.75;;;2.55;;
24407;SDS011;12542;50.924;4.516;2022-07-29T06:44:29;4.28;;;2.20;;
24407;SDS011;12542;50.924;4.516;2022-07-29T06:46:55;5.60;;;1.92;;
24407;SDS011;12542;50.924;4.516;2022-07-29T06:49:24;5.80;;;2.28;;
24407;SDS011;12542;50.924;4.516;2022-07-29T06:51:51;5.15;;;2.00;;
24407;SDS011;12542;50.924;4.516;2022-07-29T06:54:17;5.40;;;1.83;;
24407;SDS011;12542;50.924;4.516;2022-07-29T06:56:43;2.60;;;1.83;;
24407;SDS011;12542;50.924;4.516;2022-07-29T06:59:09;5.20;;;2.05;;
24407;SDS011;12542;50.924;4.516;2022-07-29T07:01:43;5.20;;;2.00;;
24407;SDS011;12542;50.924;4.516;2022-07-29T07:04:09;5.38;;;2.10;;
24407;SDS011;12542;50.924;4.516;2022-07-29T07:06:35;3.85;;;1.88;;
24407;SDS011;12542;50.924;4.516;2022-07-29T07:09:01;6.65;;;1.95;;
24407;SDS011;12542;50.924;4.516;2022-07-29T07:11:27;3.42;;;1.67;;
24407;SDS011;12542;50.924;4.516;2022-07-29T07:13:56;4.20;;;2.20;;
24407;SDS011;12542;50.924;4.516;2022-07-29T07:16:22;3.70;;;1.70;;
24407;SDS011;12542;50.924;4.516;2022-07-29T07:18:50;6.90;;;1.92;;
24407;SDS011;12542;50.924;4.516;2022-07-29T07:21:16;8.30;;;2.10;;
24407;SDS011;12542;50.924;4.516;2022-07-29T07:23:42;5.82;;;2.03;;
24407;SDS011;12542;50.924;4.516;2022-07-29T07:26:09;5.18;;;1.90;;
24407;SDS011;12542;50.924;4.516;2022-07-29T07:28:35;5.53;;;2.47;;
24407;SDS011;12542;50.924;4.516;2022-07-29T07:31:01;7.88;;;2.08;;
24407;SDS011;12542;50.924;4.516;2022-07-29T07:33:26;3.78;;;1.70;;
24407;SDS011;12542;50.924;4.516;2022-07-29T07:35:52;5.10;;;1.75;;
24407;SDS011;12542;50.924;4.516;2022-07-29T07:38:18;5.85;;;1.58;;
24407;SDS011;12542;50.924;4.516;2022-07-29T07:40:44;3.80;;;1.73;;
24407;SDS011;12542;50.924;4.516;2022-07-29T07:43:13;5.50;;;1.70;;
24407;SDS011;12542;50.924;4.516;2022-07-29T07:45:39;5.38;;;1.98;;
24407;SDS011;12542;50.924;4.516;2022-07-29T07:48:06;6.65;;;1.65;;
24407;SDS011;12542;50.924;4.516;2022-07-29T07:50:32;7.30;;;1.80;;
24407;SDS011;12542;50.924;4.516;2022-07-29T07:52:57;3.92;;;1.80;;
24407;SDS011;12542;50.924;4.516;2022-07-29T07:55:24;3.60;;;1.90;;
24407;SDS011;12542;50.924;4.516;2022-07-29T07:57:53;3.17;;;1.75;;
24407;SDS011;12542;50.924;4.516;2022-07-29T08:00:19;4.57;;;2.03;;
24407;SDS011;12542;50.924;4.516;2022-07-29T08:02:46;5.28;;;2.00;;
24407;SDS011;12542;50.924;4.516;2022-07-29T08:05:14;7.88;;;2.72;;
24407;SDS011;12542;50.924;4.516;2022-07-29T08:07:46;4.82;;;2.40;;
24407;SDS011;12542;50.924;4.516;2022-07-29T08:10:14;4.03;;;1.95;;
24407;SDS011;12542;50.924;4.516;2022-07-29T08:13:03;3.25;;;1.73;;
24407;SDS011;12542;50.924;4.516;2022-07-29T08:15:29;3.78;;;2.10;;
24407;SDS011;12542;50.924;4.516;2022-07-29T08:17:55;4.95;;;1.65;;
24407;SDS011;12542;50.924;4.516;2022-07-29T08:20:20;3.13;;;1.73;;
24407;SDS011;12542;50.924;4.516;2022-07-29T08:22:46;4.03;;;1.60;;
24407;SDS011;12542;50.924;4.516;2022-07-29T08:25:11;3.85;;;1.88;;
24407;SDS011;12542;50.924;4.516;2022-07-29T08:27:37;4.32;;;1.70;;
24407;SDS011;12542;50.924;4.516;2022-07-29T08:30:03;5.90;;;2.17;;
24407;SDS011;12542;50.924;4.516;2022-07-29T08:32:29;4.40;;;2.10;;
24407;SDS011;12542;50.924;4.516;2022-07-29T08:34:56;6.50;;;1.80;;
24407;SDS011;12542;50.924;4.516;2022-07-29T08:37:25;5.72;;;2.10;;
24407;SDS011;12542;50.924;4.516;2022-07-29T08:39:51;3.47;;;1.80;;
24407;SDS011;12542;50.924;4.516;2022-07-29T08:42:19;5.78;;;1.65;;
24407;SDS011;12542;50.924;4.516;2022-07-29T08:44:45;3.42;;;1.85;;
24407;SDS011;12542;50.924;4.516;2022-07-29T08:47:14;5.15;;;1.75;;
24407;SDS011;12542;50.924;4.516;2022-07-29T08:49:43;7.18;;;2.30;;
24407;SDS011;12542;50.924;4.516;2022-07-29T08:52:10;4.93;;;1.77;;
24407;SDS011;12542;50.924;4.516;2022-07-29T08:54:36;3.90;;;2.13;;
24407;SDS011;12542;50.924;4.516;2022-07-29T08:57:05;4.53;;;2.30;;
24407;SDS011;12542;50.924;4.516;2022-07-29T08:59:32;4.18;;;1.92;;
24407;SDS011;12542;50.924;4.516;2022-07-29T09:02:02;5.45;;;1.73;;
24407;SDS011;12542;50.924;4.516;2022-07-29T09:04:32;4.25;;;1.70;;
24407;SDS011;12542;50.924;4.516;2022-07-29T09:09:29;5.60;;;1.75;;
24407;SDS011;12542;50.924;4.516;2022-07-29T09:11:58;3.67;;;1.33;;
24407;SDS011;12542;50.924;4.516;2022-07-29T09:14:24;2.20;;;1.40;;
24407;SDS011;12542;50.924;4.516;2022-07-29T09:16:54;3.85;;;1.60;;
24407;SDS011;12542;50.924;4.516;2022-07-29T09:19:24;3.67;;;1.52;;
24407;SDS011;12542;50.924;4.516;2022-07-29T09:22:03;6.55;;;1.40;;
24407;SDS011;12542;50.924;4.516;2022-07-29T09:24:44;5.20;;;1.30;;
24407;SDS011;12542;50.924;4.516;2022-07-29T09:27:22;6.70;;;1.70;;
24407;SDS011;12542;50.924;4.516;2022-07-29T09:32:29;3.47;;;1.30;;
24407;SDS011;12542;50.924;4.516;2022-07-29T09:37:44;5.32;;;1.45;;
24407;SDS011;12542;50.924;4.516;2022-07-29T09:40:12;6.38;;;2.15;;
24407;SDS011;12542;50.924;4.516;2022-07-29T09:42:44;3.58;;;1.50;;
24407;SDS011;12542;50.924;4.516;2022-07-29T09:45:11;4.68;;;1.30;;
24407;SDS011;12542;50.924;4.516;2022-07-29T09:47:50;6.03;;;1.65;;
24407;SDS011;12542;50.924;4.516;2022-07-29T09:50:20;4.50;;;1.80;;
24407;SDS011;12542;50.924;4.516;2022-07-29T09:52:59;3.28;;;1.35;;
24407;SDS011;12542;50.924;4.516;2022-07-29T09:55:24;6.03;;;1.77;;
24407;SDS011;12542;50.924;4.516;2022-07-29T09:57:50;7.63;;;1.88;;
24407;SDS011;12542;50.924;4.516;2022-07-29T10:00:18;7.15;;;2.22;;
24407;SDS011;12542;50.924;4.516;2022-07-29T10:02:47;3.33;;;1.83;;
24407;SDS011;12542;50.924;4.516;2022-07-29T10:07:43;6.57;;;1.40;;
24407;SDS011;12542;50.924;4.516;2022-07-29T10:10:10;5.57;;;1.77;;
24407;SDS011;12542;50.924;4.516;2022-07-29T10:12:53;4.32;;;1.23;;
24407;SDS011;12542;50.924;4.516;2022-07-29T10:15:23;6.30;;;1.55;;
24407;SDS011;12542;50.924;4.516;2022-07-29T10:17:51;6.40;;;1.83;;
24407;SDS011;12542;50.924;4.516;2022-07-29T10:20:18;4.18;;;1.50;;
24407;SDS011;12542;50.924;4.516;2022-07-29T10:22:45;2.70;;;1.40;;
24407;SDS011;12542;50.924;4.516;2022-07-29T10:25:15;5.72;;;1.10;;
24407;SDS011;12542;50.924;4.516;2022-07-29T10:27:42;5.03;;;1.50;;
24407;SDS011;12542;50.924;4.516;2022-07-29T10:30:09;2.85;;;1.30;;
24407;SDS011;12542;50.924;4.516;2022-07-29T10:38:07;3.20;;;0.70;;
24407;SDS011;12542;50.924;4.516;2022-07-29T10:43:32;5.13;;;1.20;;
24407;SDS011;12542;50.924;4.516;2022-07-29T10:46:01;5.25;;;1.40;;
24407;SDS011;12542;50.924;4.516;2022-07-29T10:48:32;3.65;;;1.00;;
24407;SDS011;12542;50.924;4.516;2022-07-29T10:51:04;4.22;;;1.02;;
24407;SDS011;12542;50.924;4.516;2022-07-29T10:54:12;3.63;;;1.20;;
24407;SDS011;12542;50.924;4.516;2022-07-29T10:56:31;2.70;;;1.10;;
24407;SDS011;12542;50.924;4.516;2022-07-29T11:01:45;3.72;;;1.13;;
24407;SDS011;12542;50.924;4.516;2022-07-29T11:04:14;5.45;;;1.15;;
24407;SDS011;12542;50.924;4.516;2022-07-29T11:09:25;4.07;;;1.00;;
24407;SDS011;12542;50.924;4.516;2022-07-29T11:11:51;4.25;;;1.25;;
24407;SDS011;12542;50.924;4.516;2022-07-29T11:14:18;2.22;;;1.17;;
24407;SDS011;12542;50.924;4.516;2022-07-29T11:17:24;3.72;;;1.20;;
24407;SDS011;12542;50.924;4.516;2022-07-29T11:19:51;9.70;;;1.60;;
24407;SDS011;12542;50.924;4.516;2022-07-29T11:22:55;5.22;;;0.82;;
24407;SDS011;12542;50.924;4.516;2022-07-29T11:25:21;2.85;;;1.00;;
24407;SDS011;12542;50.924;4.516;2022-07-29T11:27:46;4.07;;;1.13;;
24407;SDS011;12542;50.924;4.516;2022-07-29T11:30:13;6.05;;;1.33;;
24407;SDS011;12542;50.924;4.516;2022-07-29T11:32:40;5.50;;;1.15;;
24407;SDS011;12542;50.924;4.516;2022-07-29T11:35:11;4.68;;;1.10;;
24407;SDS011;12542;50.924;4.516;2022-07-29T11:43:48;3.85;;;0.93;;
24407;SDS011;12542;50.924;4.516;2022-07-29T11:49:06;4.68;;;0.90;;
24407;SDS011;12542;50.924;4.516;2022-07-29T11:51:33;6.40;;;1.35;;
24407;SDS011;12542;50.924;4.516;2022-07-29T11:54:01;5.07;;;1.20;;
24407;SDS011;12542;50.924;4.516;2022-07-29T11:56:27;3.17;;;1.45;;
24407;SDS011;12542;50.924;4.516;2022-07-29T11:59:03;2.97;;;1.20;;
24407;SDS011;12542;50.924;4.516;2022-07-29T12:01:35;2.33;;;1.00;;
24407;SDS011;12542;50.924;4.516;2022-07-29T12:04:02;6.03;;;1.17;;
24407;SDS011;12542;50.924;4.516;2022-07-29T12:06:31;5.88;;;1.10;;
24407;SDS011;12542;50.924;4.516;2022-07-29T12:08:59;4.97;;;1.20;;
24407;SDS011;12542;50.924;4.516;2022-07-29T12:11:25;5.60;;;1.35;;
24407;SDS011;12542;50.924;4.516;2022-07-29T12:13:53;5.38;;;1.40;;
24407;SDS011;12542;50.924;4.516;2022-07-29T12:16:20;3.92;;;1.10;;
24407;SDS011;12542;50.924;4.516;2022-07-29T12:19:02;4.03;;;1.15;;
24407;SDS011;12542;50.924;4.516;2022-07-29T12:24:12;3.67;;;1.20;;
24407;SDS011;12542;50.924;4.516;2022-07-29T12:26:48;6.47;;;1.27;;
24407;SDS011;12542;50.924;4.516;2022-07-29T12:31:46;2.50;;;1.23;;
24407;SDS011;12542;50.924;4.516;2022-07-29T12:34:23;3.70;;;1.05;;
24407;SDS011;12542;50.924;4.516;2022-07-29T12:36:51;4.65;;;1.15;;
24407;SDS011;12542;50.924;4.516;2022-07-29T12:39:17;5.85;;;1.60;;
24407;SDS011;12542;50.924;4.516;2022-07-29T12:41:46;2.70;;;1.23;;
24407;SDS011;12542;50.924;4.516;2022-07-29T12:44:12;5.55;;;1.20;;
24407;SDS011;12542;50.924;4.516;2022-07-29T12:46:38;5.10;;;1.30;;
24407;SDS011;12542;50.924;4.516;2022-07-29T12:49:04;4.88;;;1.08;;
24407;SDS011;12542;50.924;4.516;2022-07-29T12:51:37;2.92;;;1.02;;
24407;SDS011;12542;50.924;4.516;2022-07-29T16:52:15;4.28;;;1.40;;
24407;SDS011;12542;50.924;4.516;2022-07-29T17:35:33;6.53;;;1.75;;
